createdAt,value
2023-04-23T00:02:09.346Z,74.30
2023-04-23T00:04:37.984Z,73.90
2023-04-23T00:07:05.234Z,76.90
2023-04-23T00:09:35.298Z,76.20
2023-04-23T00:12:02.281Z,79.90
2023-04-23T00:14:29.223Z,79.60
2023-04-23T00:16:56.465Z,82.40
2023-04-23T00:19:23.201Z,83.70
2023-04-23T00:21:50.142Z,85.40
2023-04-23T00:24:16.821Z,85.50
2023-04-23T00:26:43.504Z,89.40
2023-04-23T00:29:10.258Z,90.10
2023-04-23T00:31:37.057Z,91.20
2023-04-23T00:34:03.830Z,93.00
2023-04-23T00:36:30.642Z,94.60
2023-04-23T00:38:57.337Z,95.50
2023-04-23T00:41:24.747Z,97.10
2023-04-23T00:43:53.178Z,98.90
2023-04-23T00:46:20.817Z,99.10
2023-04-23T00:48:48.514Z,99.90
2023-04-23T00:51:16.875Z,98.30
2023-04-23T00:53:43.628Z,99.10
2023-04-23T00:56:10.837Z,96.60
2023-04-23T00:58:38.317Z,96.50
2023-04-23T01:01:05.809Z,96.20
2023-04-23T01:03:36.298Z,97.10
2023-04-23T01:06:04.283Z,97.10
2023-04-23T01:08:32.213Z,97.10
2023-04-23T01:10:59.650Z,97.40
2023-04-23T01:13:29.786Z,97.00
2023-04-23T01:15:56.955Z,97.50
2023-04-23T01:18:24.305Z,97.90
2023-04-23T01:20:51.663Z,98.10
2023-04-23T01:23:18.602Z,99.00
2023-04-23T01:25:45.918Z,97.70
2023-04-23T01:28:13.601Z,97.50
2023-04-23T01:30:43.495Z,98.60
2023-04-23T01:33:11.319Z,97.10
2023-04-23T01:35:39.160Z,98.10
2023-04-23T01:38:09.223Z,99.20
2023-04-23T01:40:36.029Z,99.70
2023-04-23T01:43:03.354Z,99.90
2023-04-23T01:45:31.541Z,99.90
2023-04-23T01:47:59.827Z,99.90
2023-04-23T01:50:27.992Z,99.90
2023-04-23T01:52:54.714Z,99.90
2023-04-23T01:55:21.419Z,99.90
2023-04-23T01:57:48.274Z,99.90
2023-04-23T02:00:15.984Z,99.90
2023-04-23T02:02:44.230Z,99.90
2023-04-23T02:05:16.699Z,99.90
2023-04-23T02:07:44.572Z,99.90
2023-04-23T02:10:11.627Z,99.90
2023-04-23T02:12:39.209Z,99.90
2023-04-23T02:15:08.025Z,99.90
2023-04-23T02:17:35.456Z,99.90
2023-04-23T02:20:03.094Z,99.90
2023-04-23T02:22:29.972Z,99.90
2023-04-23T02:24:56.655Z,99.90
2023-04-23T02:27:23.513Z,99.90
2023-04-23T02:29:50.289Z,99.90
2023-04-23T02:32:17.130Z,99.90
2023-04-23T02:34:43.938Z,99.90
2023-04-23T02:37:10.909Z,99.90
2023-04-23T02:39:39.281Z,99.90
2023-04-23T02:42:06.511Z,99.90
2023-04-23T02:44:33.414Z,99.90
2023-04-23T02:47:00.415Z,99.90
2023-04-23T02:49:27.528Z,99.90
2023-04-23T02:51:54.232Z,99.90
2023-04-23T02:54:20.919Z,99.90
2023-04-23T02:56:47.797Z,99.70
2023-04-23T02:59:14.567Z,99.90
2023-04-23T03:01:41.450Z,99.90
2023-04-23T03:04:08.725Z,99.90
2023-04-23T03:06:36.859Z,99.90
2023-04-23T03:09:03.632Z,99.90
2023-04-23T03:11:30.387Z,99.90
2023-04-23T03:13:57.072Z,99.60
2023-04-23T03:16:23.926Z,99.90
2023-04-23T03:18:50.760Z,99.80
2023-04-23T03:21:17.435Z,99.80
2023-04-23T03:23:44.231Z,99.90
2023-04-23T03:26:10.961Z,99.60
2023-04-23T03:28:37.673Z,99.80
2023-04-23T03:31:04.378Z,99.90
2023-04-23T03:33:31.177Z,99.90
2023-04-23T03:35:58.326Z,99.90
2023-04-23T03:38:25.039Z,99.90
2023-04-23T03:40:51.765Z,99.90
2023-04-23T03:43:18.521Z,99.90
2023-04-23T03:45:45.335Z,99.90
2023-04-23T03:48:12.048Z,99.90
2023-04-23T03:50:40.514Z,99.90
2023-04-23T03:53:08.144Z,99.90
2023-04-23T03:55:34.861Z,99.90
2023-04-23T03:58:03.032Z,99.90
2023-04-23T04:00:32.312Z,99.90
2023-04-23T04:03:00.693Z,99.90
2023-04-23T04:05:27.972Z,99.90
2023-04-23T04:07:55.670Z,99.90
2023-04-23T04:10:22.727Z,99.90
2023-04-23T04:12:49.514Z,99.90
2023-04-23T04:15:17.391Z,99.90
2023-04-23T04:17:45.978Z,99.90
2023-04-23T04:20:13.252Z,99.90
2023-04-23T04:22:39.960Z,99.90
2023-04-23T04:25:07.472Z,99.40
2023-04-23T04:27:34.658Z,98.00
2023-04-23T04:30:02.033Z,96.70
2023-04-23T04:32:28.826Z,95.70
2023-04-23T04:34:55.539Z,94.30
2023-04-23T04:37:22.279Z,94.50
2023-04-23T04:39:49.229Z,94.90
2023-04-23T04:42:16.241Z,94.40
2023-04-23T04:44:43.857Z,92.80
2023-04-23T04:47:10.933Z,90.00
2023-04-23T04:49:38.259Z,89.70
2023-04-23T04:52:04.985Z,87.90
2023-04-23T04:54:31.699Z,87.40
2023-04-23T04:56:58.412Z,86.50
2023-04-23T04:59:25.129Z,85.80
2023-04-23T05:01:51.882Z,85.80
2023-04-23T05:04:18.747Z,85.10
2023-04-23T05:06:45.670Z,84.40
2023-04-23T05:09:12.424Z,83.60
2023-04-23T05:11:40.308Z,83.80
2023-04-23T05:14:06.972Z,83.20
2023-04-23T05:16:34.771Z,82.00
2023-04-23T05:19:01.470Z,82.20
2023-04-23T05:21:28.381Z,82.40
2023-04-23T05:23:55.518Z,85.40
2023-04-23T05:26:22.236Z,86.30
2023-04-23T05:28:49.040Z,87.70
2023-04-23T05:31:15.926Z,85.40
2023-04-23T05:33:50.069Z,82.70
2023-04-23T05:36:17.895Z,82.50
2023-04-23T05:38:44.779Z,82.10
2023-04-23T05:41:11.670Z,81.70
2023-04-23T05:43:38.504Z,80.70
2023-04-23T05:46:07.213Z,81.30
2023-04-23T05:48:34.487Z,81.00
2023-04-23T05:51:01.265Z,81.00
2023-04-23T05:53:28.508Z,80.60
2023-04-23T05:55:55.242Z,80.50
2023-04-23T05:58:22.190Z,78.40
2023-04-23T06:00:50.018Z,78.50
2023-04-23T06:03:16.967Z,79.80
2023-04-23T06:05:44.034Z,77.60
2023-04-23T06:08:10.828Z,75.90
2023-04-23T06:10:37.530Z,74.80
2023-04-23T06:13:04.400Z,73.30
2023-04-23T06:15:31.296Z,72.70
2023-04-23T06:17:58.032Z,72.30
2023-04-23T06:20:26.107Z,72.50
2023-04-23T06:22:52.985Z,69.70
2023-04-23T06:25:19.664Z,69.40
2023-04-23T06:27:46.669Z,68.60
2023-04-23T06:30:16.490Z,64.70
2023-04-23T06:32:43.232Z,56.50
2023-04-23T06:35:10.097Z,52.90
2023-04-23T06:37:36.758Z,52.40
2023-04-23T06:40:03.791Z,51.30
2023-04-23T06:42:30.821Z,51.50
2023-04-23T06:44:59.502Z,51.10
2023-04-23T06:47:26.338Z,52.10
2023-04-23T06:49:53.001Z,51.80
2023-04-23T06:52:19.681Z,53.50
2023-04-23T06:54:46.433Z,54.60
2023-04-23T06:57:13.103Z,57.20
2023-04-23T06:59:39.908Z,58.00
2023-04-23T07:02:07.315Z,56.10
2023-04-23T07:04:34.084Z,53.70
2023-04-23T07:07:00.782Z,50.20
2023-04-23T07:09:28.557Z,48.30
2023-04-23T07:11:55.258Z,46.90
2023-04-23T07:14:21.940Z,45.50
2023-04-23T07:16:48.670Z,46.40
2023-04-23T07:19:15.724Z,43.10
2023-04-23T07:21:42.394Z,43.40
2023-04-23T07:24:09.115Z,42.40
2023-04-23T07:26:36.390Z,41.60
2023-04-23T07:29:06.537Z,41.20
2023-04-23T07:31:33.587Z,43.20
2023-04-23T07:34:01.471Z,43.90
2023-04-23T07:36:28.548Z,43.20
2023-04-23T07:38:55.368Z,42.30
2023-04-23T07:41:22.245Z,43.00
2023-04-23T07:43:48.922Z,44.90
2023-04-23T07:46:15.762Z,44.60
2023-04-23T07:48:42.482Z,44.40
2023-04-23T07:51:09.613Z,44.90
2023-04-23T07:53:36.378Z,45.90
2023-04-23T07:56:03.257Z,45.70
2023-04-23T07:58:30.072Z,48.40
2023-04-23T08:00:56.933Z,48.30
2023-04-23T08:03:24.409Z,45.70
2023-04-23T08:05:51.318Z,45.10
2023-04-23T08:08:18.025Z,42.80
2023-04-23T08:10:45.838Z,42.50
2023-04-23T08:13:12.577Z,41.80
2023-04-23T08:15:39.429Z,42.00
2023-04-23T08:18:06.478Z,42.30
2023-04-23T08:20:33.991Z,41.50
2023-04-23T08:23:00.910Z,43.10
2023-04-23T08:25:27.701Z,43.90
2023-04-23T08:27:54.367Z,44.60
2023-04-23T08:30:21.124Z,42.00
2023-04-23T08:32:51.521Z,41.60
2023-04-23T08:35:18.187Z,42.90
2023-04-23T08:37:45.084Z,41.50
2023-04-23T08:40:13.194Z,40.60
2023-04-23T08:42:51.491Z,39.80
2023-04-23T08:45:18.826Z,38.00
2023-04-23T08:47:45.749Z,38.40
2023-04-23T08:50:18.273Z,38.40
2023-04-23T08:52:52.574Z,41.50
2023-04-23T09:02:45.146Z,43.60
